createdAt,value
2022-12-24T00:03:55.727Z,5.69
2022-12-24T00:08:57.852Z,5.60
2022-12-24T00:14:01.902Z,5.64
2022-12-24T00:19:04.100Z,5.60
2022-12-24T00:24:07.089Z,5.70
2022-12-24T00:29:11.071Z,5.65
2022-12-24T00:34:13.363Z,5.62
2022-12-24T00:39:15.426Z,5.57
2022-12-24T00:44:18.524Z,5.49
2022-12-24T00:49:20.866Z,5.52
2022-12-24T00:54:22.788Z,5.50
2022-12-24T00:59:26.452Z,5.40
2022-12-24T01:04:28.551Z,5.44
2022-12-24T01:09:30.761Z,5.36
2022-12-24T01:14:33.807Z,5.38
2022-12-24T01:19:35.849Z,5.36
2022-12-24T01:24:39.959Z,5.33
2022-12-24T01:29:43.489Z,5.36
2022-12-24T01:34:45.569Z,5.39
2022-12-24T01:39:47.437Z,5.31
2022-12-24T01:44:52.154Z,5.29
2022-12-24T01:49:59.616Z,5.28
2022-12-24T01:55:06.826Z,5.34
2022-12-24T02:00:13.938Z,5.33
2022-12-24T02:05:22.495Z,5.31
2022-12-24T02:10:25.005Z,5.37
2022-12-24T02:15:31.993Z,5.32
2022-12-24T02:21:05.274Z,5.36
2022-12-24T02:26:33.516Z,5.40
2022-12-24T02:31:41.955Z,5.51
2022-12-24T02:36:49.048Z,5.36
2022-12-24T02:41:56.095Z,5.33
2022-12-24T02:47:01.170Z,5.45
2022-12-24T02:52:04.002Z,5.46
2022-12-24T02:57:12.921Z,5.49
2022-12-24T03:02:27.048Z,5.34
2022-12-24T03:07:35.189Z,5.26
2022-12-24T03:12:41.883Z,5.23
2022-12-24T03:17:48.048Z,5.21
2022-12-24T03:22:50.536Z,5.44
2022-12-24T03:27:52.831Z,5.40
2022-12-24T03:32:56.483Z,5.42
2022-12-24T03:37:58.526Z,5.32
2022-12-24T03:43:00.591Z,5.38
2022-12-24T03:48:04.229Z,5.34
2022-12-24T03:53:06.512Z,5.41
2022-12-24T03:58:08.582Z,5.32
2022-12-24T04:03:12.488Z,5.33
2022-12-24T04:08:14.587Z,5.24
2022-12-24T04:13:16.771Z,5.25
2022-12-24T04:18:20.181Z,5.21
2022-12-24T04:23:22.870Z,5.21
2022-12-24T04:28:24.540Z,5.25
2022-12-24T04:33:28.772Z,5.29
2022-12-24T04:38:31.025Z,5.26
2022-12-24T04:43:33.714Z,5.23
2022-12-24T04:48:37.705Z,5.34
2022-12-24T04:53:40.559Z,5.32
2022-12-24T04:58:43.128Z,5.26
2022-12-24T05:03:46.827Z,5.21
2022-12-24T05:08:48.913Z,5.24
2022-12-24T05:13:50.938Z,5.25
2022-12-24T05:18:54.593Z,5.26
2022-12-24T05:23:56.860Z,5.15
2022-12-24T05:29:00.913Z,5.10
2022-12-24T05:34:04.423Z,5.09
2022-12-24T05:39:11.564Z,5.05
2022-12-24T05:44:17.937Z,5.03
2022-12-24T05:49:21.403Z,5.03
2022-12-24T05:54:24.241Z,5.03
2022-12-24T05:59:26.371Z,5.01
2022-12-24T06:04:32.480Z,5.05
2022-12-24T06:09:34.502Z,5.06
2022-12-24T06:14:36.798Z,5.05
2022-12-24T06:19:41.355Z,5.03
2022-12-24T06:24:43.700Z,5.03
2022-12-24T06:29:45.738Z,5.04
2022-12-24T06:34:48.855Z,5.02
2022-12-24T06:39:51.251Z,5.01
2022-12-24T06:44:53.247Z,5.10
2022-12-24T06:49:57.374Z,5.11
2022-12-24T06:54:59.114Z,5.11
2022-12-24T07:00:01.205Z,5.09
2022-12-24T07:05:05.723Z,5.05
2022-12-24T07:10:10.424Z,5.13
2022-12-24T07:15:12.831Z,5.04
2022-12-24T07:20:15.925Z,5.06
2022-12-24T07:25:18.497Z,5.09
2022-12-24T07:30:20.746Z,5.12
2022-12-24T07:35:24.207Z,5.42
2022-12-24T07:40:26.460Z,5.70
2022-12-24T07:45:28.554Z,5.82
2022-12-24T07:50:31.550Z,6.19
2022-12-24T07:55:33.299Z,6.29
2022-12-24T08:00:35.089Z,6.16
2022-12-24T08:05:38.732Z,6.22
2022-12-24T08:10:41.036Z,5.95
2022-12-24T08:15:43.697Z,5.95
2022-12-24T08:20:47.795Z,6.09
2022-12-24T08:25:50.169Z,6.15
2022-12-24T08:30:52.489Z,6.06
2022-12-24T08:35:57.438Z,6.07
2022-12-24T08:40:59.630Z,6.37
2022-12-24T08:46:03.182Z,6.42
2022-12-24T08:51:09.343Z,6.34
2022-12-24T08:56:11.868Z,6.36
2022-12-24T09:01:15.551Z,6.46
2022-12-24T09:06:18.979Z,6.49
2022-12-24T09:11:20.952Z,6.63
2022-12-24T09:16:23.115Z,6.78
2022-12-24T09:21:26.322Z,6.96
2022-12-24T09:26:28.288Z,7.18
2022-12-24T09:31:30.397Z,7.17
2022-12-24T09:36:34.401Z,7.24
2022-12-24T09:41:45.536Z,7.27
2022-12-24T09:46:50.192Z,7.26
2022-12-24T09:51:59.403Z,7.34
2022-12-24T09:57:08.068Z,7.34
2022-12-24T10:02:12.303Z,7.33
2022-12-24T10:07:29.930Z,7.34
2022-12-24T10:12:37.813Z,7.34
2022-12-24T10:17:52.809Z,7.32
2022-12-24T10:23:03.621Z,7.39
2022-12-24T10:28:14.328Z,7.37
2022-12-24T10:33:19.991Z,7.50
2022-12-24T10:38:23.106Z,7.60
2022-12-24T10:43:28.939Z,7.67
2022-12-24T10:48:38.245Z,7.89
2022-12-24T10:53:47.098Z,7.72
2022-12-24T10:58:53.065Z,7.73
2022-12-24T11:04:01.074Z,7.69
2022-12-24T11:09:21.853Z,8.04
2022-12-24T11:14:25.663Z,10.85
2022-12-24T11:19:32.840Z,15.48
2022-12-24T11:24:38.011Z,16.58
2022-12-24T11:29:40.173Z,12.34
2022-12-24T11:34:44.042Z,10.81
2022-12-24T11:39:50.398Z,10.56
2022-12-24T11:44:54.810Z,10.07
2022-12-24T11:50:20.057Z,9.74
2022-12-24T11:55:40.012Z,9.32
2022-12-24T12:00:43.859Z,9.36
2022-12-24T12:05:45.722Z,9.23
2022-12-24T12:10:51.529Z,9.21
2022-12-24T12:16:05.298Z,9.10
2022-12-24T12:21:14.718Z,9.04
2022-12-24T12:26:23.429Z,9.07
2022-12-24T12:31:32.602Z,9.12
2022-12-24T12:36:40.543Z,9.45
2022-12-24T12:41:55.279Z,9.55
2022-12-24T12:47:13.877Z,9.71
2022-12-24T12:52:38.290Z,9.71
2022-12-24T12:57:41.575Z,9.70
2022-12-24T13:03:21.118Z,9.62
2022-12-24T13:08:42.983Z,9.56
2022-12-24T13:14:03.381Z,9.48
2022-12-24T13:19:19.872Z,9.85
2022-12-24T13:24:23.754Z,9.86
2022-12-24T13:29:42.245Z,9.78
2022-12-24T13:34:48.955Z,9.45
2022-12-24T13:40:21.992Z,9.13
2022-12-24T13:45:48.920Z,8.85
2022-12-24T13:50:54.257Z,8.60
2022-12-24T13:56:02.588Z,8.45
2022-12-24T14:01:11.210Z,8.34
2022-12-24T14:06:23.230Z,8.26
2022-12-24T14:11:28.307Z,8.18
2022-12-24T14:16:44.184Z,8.09
2022-12-24T14:21:55.377Z,7.94
2022-12-24T14:27:00.028Z,7.83
2022-12-24T14:32:14.344Z,7.71
2022-12-24T14:37:16.841Z,7.62
2022-12-24T14:42:30.923Z,7.47
2022-12-24T14:47:41.895Z,7.33
2022-12-24T14:53:05.979Z,7.08
2022-12-24T14:58:24.885Z,6.89
2022-12-24T15:03:29.749Z,6.83
2022-12-24T15:08:36.613Z,6.59
2022-12-24T15:13:40.400Z,6.31
2022-12-24T15:18:48.152Z,6.15
2022-12-24T15:23:51.918Z,6.11
2022-12-24T15:29:02.370Z,6.25
2022-12-24T15:34:06.764Z,6.30
2022-12-24T15:39:16.345Z,6.26
2022-12-24T15:44:18.885Z,6.65
2022-12-24T15:49:23.796Z,6.76
2022-12-24T15:54:25.979Z,6.89
2022-12-24T15:59:30.906Z,6.85
2022-12-24T16:04:34.010Z,6.76
2022-12-24T16:09:45.133Z,6.72
2022-12-24T16:14:52.517Z,6.57
2022-12-24T16:20:00.504Z,6.48
2022-12-24T16:25:21.745Z,6.48
2022-12-24T16:30:23.445Z,6.33
2022-12-24T16:35:30.401Z,6.11
2022-12-24T16:40:32.181Z,5.87
2022-12-24T16:45:36.263Z,5.77
2022-12-24T16:50:39.437Z,5.71
2022-12-24T16:55:41.751Z,5.61
2022-12-24T17:00:44.312Z,5.74
2022-12-24T17:05:47.438Z,5.62
2022-12-24T17:10:52.929Z,5.70
2022-12-24T17:15:55.129Z,5.90
2022-12-24T17:20:59.509Z,6.03
2022-12-24T17:26:02.604Z,5.88
2022-12-24T17:31:08.481Z,5.96
2022-12-24T17:36:11.728Z,6.21
2022-12-24T17:41:16.149Z,6.59
2022-12-24T17:46:20.003Z,6.90
2022-12-24T17:51:23.816Z,7.06
2022-12-24T17:56:26.473Z,7.09
2022-12-24T18:01:29.196Z,7.04
2022-12-24T18:06:32.893Z,7.07
2022-12-24T18:11:37.285Z,7.13
2022-12-24T18:16:40.514Z,7.19
2022-12-24T18:21:44.462Z,7.24
2022-12-24T18:26:46.827Z,7.25
2022-12-24T18:31:48.676Z,7.28
2022-12-24T18:36:55.422Z,7.20
2022-12-24T18:41:57.527Z,7.18
2022-12-24T18:46:59.709Z,7.13
2022-12-24T18:52:05.075Z,6.97
2022-12-24T18:57:07.018Z,6.73
2022-12-24T19:02:10.621Z,6.54
2022-12-24T19:07:13.807Z,6.35
2022-12-24T19:12:16.272Z,6.18
2022-12-24T19:17:18.286Z,6.30
2022-12-24T19:22:21.663Z,6.32
2022-12-24T19:27:23.355Z,6.18
2022-12-24T19:32:25.026Z,5.99
2022-12-24T19:37:29.875Z,5.73
2022-12-24T19:42:31.868Z,5.80
2022-12-24T19:47:33.909Z,5.90
2022-12-24T19:52:37.455Z,6.06
2022-12-24T19:57:39.417Z,6.10
2022-12-24T20:02:41.625Z,6.09
2022-12-24T20:07:44.897Z,6.12
2022-12-24T20:12:46.608Z,6.08
2022-12-24T20:17:48.295Z,6.09
2022-12-24T20:22:51.667Z,6.06
2022-12-24T20:27:53.524Z,5.96
2022-12-24T20:32:56.175Z,5.82
2022-12-24T20:37:59.305Z,5.62
2022-12-24T20:43:01.438Z,5.59
2022-12-24T20:48:03.962Z,5.66
2022-12-24T20:53:07.507Z,5.82
2022-12-24T20:58:11.650Z,5.82
2022-12-24T21:03:13.673Z,5.94
2022-12-24T21:08:17.764Z,5.97
2022-12-24T21:13:20.588Z,6.01
2022-12-24T21:18:22.641Z,6.12
2022-12-24T21:23:26.561Z,6.17
2022-12-24T21:28:28.710Z,6.18
2022-12-24T21:33:36.229Z,6.15
2022-12-24T21:38:42.425Z,6.09
2022-12-24T21:43:45.095Z,6.17
2022-12-24T21:48:47.105Z,6.14
2022-12-24T21:53:50.639Z,6.18
2022-12-24T21:58:52.671Z,6.12
2022-12-24T22:03:54.537Z,6.10
2022-12-24T22:08:58.057Z,6.16
2022-12-24T22:14:00.720Z,6.11
2022-12-24T22:19:02.558Z,6.09
2022-12-24T22:24:07.471Z,6.04
2022-12-24T22:29:09.490Z,5.95
2022-12-24T22:34:11.433Z,5.83
2022-12-24T22:39:14.672Z,5.69
2022-12-24T22:44:17.003Z,5.53
2022-12-24T22:49:19.183Z,5.38
2022-12-24T22:54:22.760Z,5.16
2022-12-24T22:59:25.093Z,5.05
2022-12-24T23:04:26.920Z,4.99
2022-12-24T23:09:30.684Z,4.74
2022-12-24T23:14:33.261Z,4.53
2022-12-24T23:19:35.247Z,4.31
2022-12-24T23:24:38.812Z,4.14
2022-12-24T23:29:40.728Z,3.93
2022-12-24T23:34:43.079Z,3.80
2022-12-24T23:39:46.636Z,3.86
2022-12-24T23:44:48.674Z,3.93
2022-12-24T23:49:50.781Z,3.61
2022-12-24T23:54:54.280Z,3.50
2022-12-24T23:59:56.058Z,3.43
